Time;durP1;ratioP1;P1;durP2;ratioP2;P2;SDS_P1;SDS_P2;PMS_P1;PMS_P2;Temp;Humidity;BMP_temperature;BMP_pressure;BME280_temperature;BME280_humidity;BME280_pressure;Samples;Min_cycle;Max_cycle;Signal;HPM_P1;HPM_P2
2024/01/26 00:01:15;;;;;;;8.20;2.97;;;;;;;-144.30;63.78;86354.75;5049679;28;20246;-60
2024/01/26 00:03:42;;;;;;;6.97;3.03;;;;;;;-144.30;63.56;86346.81;5049631;28;20229;-61
2024/01/26 00:06:09;;;;;;;5.27;2.40;;;;;;;-144.30;63.19;86360.72;5049655;28;20239;-61
2024/01/26 00:08:37;;;;;;;7.97;2.80;;;;;;;-144.30;63.71;86408.44;5049283;28;20201;-53
2024/01/26 00:11:04;;;;;;;5.80;2.60;;;;;;;-144.30;63.74;86392.53;5049117;28;20211;-53
2024/01/26 00:13:31;;;;;;;6.23;2.87;;;;;;;-144.30;63.59;86380.59;5049059;28;20220;-53
2024/01/26 00:15:58;;;;;;;8.30;2.57;;;;;;;-144.30;63.08;86390.53;5048821;28;20292;-54
2024/01/26 00:18:25;;;;;;;4.33;2.70;;;;;;;-144.30;63.29;86410.44;5049228;28;20201;-53
2024/01/26 00:20:52;;;;;;;5.37;2.40;;;;;;;-144.30;63.19;86382.59;5049069;28;20225;-54
2024/01/26 00:23:19;;;;;;;8.07;2.80;;;;;;;-144.30;62.56;86368.66;5049509;28;20216;-54
2024/01/26 00:25:47;;;;;;;6.43;2.80;;;;;;;-144.30;62.79;86366.69;5049520;28;20603;-55
2024/01/26 00:28:14;;;;;;;7.80;3.03;;;;;;;-144.30;62.60;86372.66;5049262;28;20232;-54
2024/01/26 00:30:41;;;;;;;6.10;2.60;;;;;;;-144.30;62.61;86384.59;5049181;28;20188;-53
2024/01/26 00:33:07;;;;;;;2.83;2.10;;;;;;;-144.30;62.34;86362.72;5049026;28;20209;-52
2024/01/26 00:35:34;;;;;;;3.20;1.97;;;;;;;-144.30;61.91;86358.72;5048806;28;20288;-52
2024/01/26 00:38:01;;;;;;;10.07;3.20;;;;;;;-144.30;61.59;86322.94;5049343;28;20691;-52
2024/01/26 00:40:28;;;;;;;7.83;2.83;;;;;;;-144.30;61.81;86350.78;5049229;28;20581;-53
2024/01/26 00:42:56;;;;;;;5.90;2.70;;;;;;;-144.30;61.00;86326.91;5049820;28;20196;-53
2024/01/26 00:45:23;;;;;;;6.17;2.23;;;;;;;-144.30;61.69;86350.78;5053516;28;20212;-53
2024/01/26 00:47:50;;;;;;;5.93;1.90;;;;;;;-144.30;61.59;86348.78;5053064;28;20197;-54
2024/01/26 00:50:17;;;;;;;4.43;2.23;;;;;;;-144.30;61.18;86330.88;5052993;28;20199;-54
2024/01/26 00:52:44;;;;;;;6.90;2.43;;;;;;;-144.30;61.74;86332.88;5053209;28;20195;-52
2024/01/26 00:55:11;;;;;;;5.60;2.30;;;;;;;-144.30;61.09;86348.78;5053088;28;20200;-54
2024/01/26 00:57:39;;;;;;;4.37;2.10;;;;;;;-144.30;61.45;86322.94;5052881;28;20211;-53
2024/01/26 01:00:09;;;;;;;3.90;2.17;;;;;;;-144.30;61.21;86382.59;5052630;28;20207;-54
2024/01/26 01:02:36;;;;;;;7.73;2.20;;;;;;;-144.30;61.44;86382.59;5054941;28;20287;-53
2024/01/26 01:05:03;;;;;;;4.03;2.10;;;;;;;-144.30;61.75;86382.59;5061016;28;20205;-54
2024/01/26 01:07:30;;;;;;;8.60;2.47;;;;;;;-144.30;61.86;86362.72;5052132;28;20199;-53
2024/01/26 01:09:56;;;;;;;5.87;2.40;;;;;;;-144.30;61.74;86432.31;5051990;28;20239;-53
2024/01/26 01:12:23;;;;;;;4.77;2.33;;;;;;;-144.30;61.74;86340.84;5051941;28;20192;-54
2024/01/26 01:14:51;;;;;;;4.63;2.40;;;;;;;-144.30;61.78;86340.84;5052382;28;20203;-54
2024/01/26 01:17:19;;;;;;;10.43;2.23;;;;;;;-144.30;61.94;86338.84;5052342;28;20258;-61
2024/01/26 01:19:46;;;;;;;6.10;2.37;;;;;;;-144.30;62.27;86354.75;5052573;28;20216;-61
2024/01/26 01:22:13;;;;;;;8.90;2.37;;;;;;;-144.30;61.73;86344.81;5052788;28;20607;-61
2024/01/26 01:24:40;;;;;;;5.73;2.50;;;;;;;-144.30;62.05;86360.72;5052411;28;20602;-60
2024/01/26 01:27:06;;;;;;;6.90;2.87;;;;;;;-144.30;61.48;86350.78;5052278;28;20325;-54
2024/01/26 01:29:34;;;;;;;7.17;2.80;;;;;;;-144.30;62.13;86366.69;5052135;28;20203;-53
2024/01/26 01:32:01;;;;;;;6.23;2.93;;;;;;;-144.30;62.23;86382.59;5052315;28;20199;-54
2024/01/26 01:34:29;;;;;;;5.63;2.20;;;;;;;-144.30;62.08;86358.72;5052205;28;20197;-54
2024/01/26 01:36:56;;;;;;;6.60;2.57;;;;;;;-144.30;62.25;86402.47;5052145;28;20203;-61
2024/01/26 01:39:23;;;;;;;11.53;3.10;;;;;;;-144.30;61.81;86380.59;5052445;28;20287;-60
2024/01/26 01:41:50;;;;;;;5.13;2.43;;;;;;;-144.30;61.49;86370.66;5052106;28;20787;-60
2024/01/26 01:44:17;;;;;;;6.33;2.70;;;;;;;-144.30;62.13;86390.53;5052180;28;20262;-60
2024/01/26 01:46:44;;;;;;;5.63;2.63;;;;;;;-144.30;61.85;86352.75;5051831;28;20200;-61
2024/01/26 01:49:10;;;;;;;5.23;2.30;;;;;;;-144.30;61.66;86251.34;5051897;28;20202;-60
2024/01/26 01:51:44;;;;;;;7.23;2.27;;;;;;;-144.30;62.08;86362.72;5051852;28;20192;-60
2024/01/26 01:54:12;;;;;;;6.50;2.70;;;;;;;-144.30;61.97;86382.59;5051018;28;20196;-61
2024/01/26 01:56:40;;;;;;;4.93;2.60;;;;;;;-144.30;62.40;86332.88;5051463;28;20200;-61
2024/01/26 01:59:09;;;;;;;8.83;2.70;;;;;;;-144.30;62.65;86368.66;5051823;28;20668;-61
2024/01/26 02:01:36;;;;;;;6.50;2.43;;;;;;;-144.30;62.39;86384.59;5051801;28;20715;-61
2024/01/26 02:04:04;;;;;;;3.30;2.17;;;;;;;-144.30;62.40;86402.47;5051959;28;20204;-61
2024/01/26 02:06:31;;;;;;;9.83;2.87;;;;;;;-144.30;62.44;86398.50;5051755;28;20208;-60
2024/01/26 02:08:59;;;;;;;5.97;2.60;;;;;;;-144.30;62.73;86370.66;5051709;28;20223;-60
2024/01/26 02:11:26;;;;;;;5.33;2.63;;;;;;;-144.30;62.95;86386.56;5051452;28;20211;-59
2024/01/26 02:13:53;;;;;;;7.77;2.83;;;;;;;-144.30;62.95;86370.66;5051734;28;20223;-60
2024/01/26 02:16:20;;;;;;;6.33;2.40;;;;;;;-144.30;62.17;86390.53;5051757;28;20218;-61
2024/01/26 02:18:47;;;;;;;4.70;2.10;;;;;;;-144.30;62.41;86392.53;5051134;28;20197;-60
2024/01/26 02:21:14;;;;;;;10.00;2.50;;;;;;;-144.30;62.51;86394.53;5051294;28;20230;-60
2024/01/26 02:23:43;;;;;;;6.37;2.43;;;;;;;-144.30;62.51;86412.41;5051270;28;20630;-60
2024/01/26 02:26:11;;;;;;;5.43;2.70;;;;;;;-144.30;62.20;86376.63;5050835;28;20197;-53
2024/01/26 02:28:38;;;;;;;10.37;2.60;;;;;;;-144.30;62.06;86412.41;5050465;28;20313;-54
2024/01/26 02:31:05;;;;;;;6.67;2.53;;;;;;;-144.30;61.88;86354.75;5050889;28;20203;-60
2024/01/26 02:33:32;;;;;;;5.90;2.77;;;;;;;-144.30;61.74;86332.88;5050810;28;20205;-60
2024/01/26 02:35:59;;;;;;;3.80;2.10;;;;;;;-144.30;61.50;86372.66;5050751;28;20235;-60
2024/01/26 02:38:26;;;;;;;7.37;2.83;;;;;;;-144.30;61.31;86394.53;5051106;28;20201;-61
2024/01/26 02:40:54;;;;;;;10.77;3.07;;;;;;;-144.30;61.55;86374.63;5050993;28;20227;-54
2024/01/26 02:43:21;;;;;;;7.13;2.87;;;;;;;-144.30;61.62;86380.59;5051179;28;20210;-53
2024/01/26 02:45:48;;;;;;;8.83;2.17;;;;;;;-144.30;61.06;86378.63;5050803;28;20193;-61
2024/01/26 02:48:14;;;;;;;4.83;2.70;;;;;;;-144.30;61.01;86370.66;5050946;28;20193;-54
2024/01/26 02:50:41;;;;;;;4.83;2.40;;;;;;;-144.30;60.81;86307.03;5050665;28;20200;-54
2024/01/26 02:53:08;;;;;;;7.33;3.23;;;;;;;-144.30;60.80;86366.69;5050753;28;20196;-53
2024/01/26 02:55:35;;;;;;;10.03;2.90;;;;;;;-144.30;61.49;86366.69;5050697;28;20197;-53
2024/01/26 02:58:04;;;;;;;4.60;2.47;;;;;;;-144.30;60.99;86370.66;5050853;28;20250;-53
2024/01/26 03:00:31;;;;;;;8.00;3.50;;;;;;;-144.30;61.08;86378.63;5050665;28;20207;-54
2024/01/26 03:02:57;;;;;;;7.20;2.77;;;;;;;-144.30;60.88;86350.78;5050655;28;20703;-53
2024/01/26 03:05:24;;;;;;;7.10;2.60;;;;;;;-144.30;60.86;86350.78;5050392;28;20210;-53
2024/01/26 03:07:51;;;;;;;9.73;2.97;;;;;;;-144.30;61.45;86374.63;5050352;28;20793;-53
2024/01/26 03:10:18;;;;;;;5.17;2.60;;;;;;;-144.30;61.23;86350.78;5050513;28;20297;-53
2024/01/26 03:12:47;;;;;;;3.87;2.77;;;;;;;-144.30;61.11;86356.75;5050540;28;20219;-53
2024/01/26 03:15:15;;;;;;;4.83;2.77;;;;;;;-144.30;61.25;86350.78;5050335;28;20201;-53
2024/01/26 03:17:42;;;;;;;4.77;2.67;;;;;;;-144.30;61.10;86340.84;5050274;28;20207;-53
2024/01/26 03:20:10;;;;;;;4.90;2.27;;;;;;;-144.30;61.13;86330.88;5050213;28;20197;-54
2024/01/26 03:22:36;;;;;;;3.60;2.37;;;;;;;-144.30;60.88;86348.78;5050189;28;20228;-54
2024/01/26 03:25:04;;;;;;;6.67;2.63;;;;;;;-144.30;60.84;86277.19;5050357;28;20217;-54
2024/01/26 03:27:31;;;;;;;7.87;2.70;;;;;;;-144.30;60.94;86350.78;5050220;28;20237;-60
2024/01/26 03:29:57;;;;;;;5.83;2.27;;;;;;;-144.30;60.84;86316.97;5050325;28;20211;-54
2024/01/26 03:32:26;;;;;;;6.87;2.80;;;;;;;-144.30;61.23;86313.00;5050322;28;20574;-54
2024/01/26 03:34:53;;;;;;;5.23;2.73;;;;;;;-144.30;61.25;86293.09;5049901;28;20657;-53
2024/01/26 03:37:19;;;;;;;5.90;2.53;;;;;;;-144.30;61.19;86314.97;5050139;28;20201;-54
2024/01/26 03:39:46;;;;;;;2.90;2.30;;;;;;;-144.30;61.05;86364.69;5049474;28;20200;-53
2024/01/26 03:42:13;;;;;;;5.10;2.20;;;;;;;-144.30;61.10;86336.84;5049829;28;20593;-53
2024/01/26 03:44:42;;;;;;;6.00;2.37;;;;;;;-144.30;61.62;86396.50;5049552;28;20672;-53
2024/01/26 03:47:10;;;;;;;7.83;2.93;;;;;;;-144.30;61.44;86376.63;5049676;28;20200;-53
2024/01/26 03:49:44;;;;;;;3.50;2.27;;;;;;;-144.30;61.36;86259.31;5049504;28;20207;-54
2024/01/26 03:52:11;;;;;;;5.40;2.03;;;;;;;-144.30;61.02;86334.88;5049545;28;20199;-52
2024/01/26 03:54:38;;;;;;;6.70;2.50;;;;;;;-144.30;61.54;86330.88;5049727;28;20228;-60
2024/01/26 03:57:06;;;;;;;4.03;2.40;;;;;;;-144.30;61.23;86217.56;5058615;28;20227;-53
2024/01/26 03:59:33;;;;;;;7.57;2.50;;;;;;;-144.30;60.89;86277.19;5051386;28;20617;-55
2024/01/26 04:02:00;;;;;;;6.40;2.80;;;;;;;-144.30;60.83;86336.84;5060001;28;20588;-60
2024/01/26 04:04:27;;;;;;;7.40;2.50;;;;;;;-144.30;61.25;86350.78;5058330;28;20291;-60
2024/01/26 04:06:55;;;;;;;9.43;2.40;;;;;;;-144.30;61.44;86311.00;5049420;28;20196;-61
2024/01/26 04:09:22;;;;;;;7.53;2.43;;;;;;;-144.30;61.30;86358.72;5049411;28;20197;-61
2024/01/26 04:11:49;;;;;;;3.07;2.13;;;;;;;-144.30;61.57;86362.72;5049177;28;20197;-61
2024/01/26 04:14:16;;;;;;;4.77;2.40;;;;;;;-144.30;62.08;86352.75;5049316;28;20196;-61
2024/01/26 04:16:43;;;;;;;4.43;2.50;;;;;;;-144.30;61.79;86352.75;5049135;28;20584;-61
2024/01/26 04:19:10;;;;;;;8.57;2.27;;;;;;;-144.30;61.69;86326.91;5052414;28;20196;-60
2024/01/26 04:21:37;;;;;;;2.80;1.80;;;;;;;-144.30;61.69;86374.63;5069444;28;20238;-61
2024/01/26 04:24:06;;;;;;;2.60;1.80;;;;;;;-144.30;61.74;86356.75;5073636;28;20596;-62
2024/01/26 04:26:32;;;;;;;6.87;2.27;;;;;;;-144.30;60.99;86382.59;5073307;28;20216;-60
2024/01/26 04:28:59;;;;;;;5.23;2.73;;;;;;;-144.30;60.59;86338.84;5073241;28;20737;-61
2024/01/26 04:31:26;;;;;;;4.53;2.37;;;;;;;-144.30;61.30;86388.56;5071648;28;20706;-61
2024/01/26 04:33:53;;;;;;;5.77;2.23;;;;;;;-144.30;60.75;86340.84;5053178;28;20211;-60
2024/01/26 04:36:20;;;;;;;4.80;1.87;;;;;;;-144.30;60.77;86378.63;5055364;28;20284;-61
2024/01/26 04:38:47;;;;;;;4.60;2.07;;;;;;;-144.30;60.86;86368.66;5072929;28;20210;-60
2024/01/26 04:41:15;;;;;;;11.23;2.57;;;;;;;-144.30;60.31;86368.66;5073124;28;20214;-61
2024/01/26 04:43:43;;;;;;;6.10;2.43;;;;;;;-144.30;60.58;86346.81;5072874;28;20202;-54
2024/01/26 04:46:10;;;;;;;6.40;2.60;;;;;;;-144.30;60.60;86366.69;5072921;28;20583;-54
2024/01/26 04:48:38;;;;;;;7.30;2.57;;;;;;;-144.30;61.25;86364.69;5068053;28;20687;-54
2024/01/26 04:51:05;;;;;;;4.40;2.53;;;;;;;-144.30;61.08;86374.63;5052818;28;20594;-54
2024/01/26 04:53:32;;;;;;;4.80;2.70;;;;;;;-144.30;61.57;86366.69;5061820;28;20219;-60
2024/01/26 04:55:59;;;;;;;5.10;2.27;;;;;;;-144.30;60.95;86346.81;5052739;28;20277;-61
2024/01/26 04:58:27;;;;;;;7.23;2.50;;;;;;;-144.30;60.37;86360.72;5053124;28;20208;-61
2024/01/26 05:00:54;;;;;;;7.30;2.30;;;;;;;-144.30;60.45;86350.78;5052595;28;20197;-61
2024/01/26 05:03:21;;;;;;;4.87;2.60;;;;;;;-144.30;60.21;86384.59;5067268;28;20220;-61
2024/01/26 05:05:48;;;;;;;4.03;1.87;;;;;;;-144.30;60.32;86342.81;5070893;28;20208;-54
2024/01/26 05:08:15;;;;;;;9.20;2.07;;;;;;;-144.30;60.54;86386.56;5071011;28;20584;-53
2024/01/26 05:10:42;;;;;;;6.47;2.43;;;;;;;-144.30;60.58;86382.59;5052227;28;20213;-54
2024/01/26 05:13:09;;;;;;;4.93;2.47;;;;;;;-144.30;60.58;86372.66;5052713;28;20693;-59
2024/01/26 05:15:38;;;;;;;8.30;2.37;;;;;;;-144.30;60.39;86382.59;5052618;28;20197;-61
2024/01/26 05:18:05;;;;;;;5.93;2.70;;;;;;;-144.30;60.02;86350.78;5052775;28;20196;-54
2024/01/26 05:20:32;;;;;;;8.40;2.27;;;;;;;-144.30;59.72;86350.78;5052528;28;20196;-53
2024/01/26 05:22:59;;;;;;;11.33;2.40;;;;;;;-144.30;59.65;86394.53;5066587;28;20260;-53
2024/01/26 05:25:26;;;;;;;6.90;2.23;;;;;;;-144.30;59.51;86378.63;5051769;28;20282;-61
2024/01/26 05:27:52;;;;;;;6.47;2.40;;;;;;;-144.30;59.34;86380.59;5062857;28;20236;-61
2024/01/26 05:30:19;;;;;;;4.90;3.00;;;;;;;-144.30;59.64;86366.69;5064583;28;20690;-61
2024/01/26 05:32:48;;;;;;;6.40;2.70;;;;;;;-144.30;59.92;86380.59;5070143;28;20227;-61
2024/01/26 05:35:15;;;;;;;8.47;2.10;;;;;;;-144.30;59.54;86366.69;5065778;28;20211;-60
2024/01/26 05:37:43;;;;;;;5.30;2.03;;;;;;;-144.30;59.49;86376.63;5061903;28;20196;-59
2024/01/26 05:40:10;;;;;;;8.67;2.53;;;;;;;-144.30;59.86;86384.59;5072086;28;20341;-58
2024/01/26 05:42:37;;;;;;;6.70;2.90;;;;;;;-144.30;59.78;86356.75;5065068;28;20227;-58
2024/01/26 05:45:05;;;;;;;4.80;2.57;;;;;;;-144.30;59.68;86376.63;5072238;28;20206;-58
2024/01/26 05:47:32;;;;;;;4.47;2.33;;;;;;;-144.30;59.39;86382.59;5071949;28;20683;-59
2024/01/26 05:50:00;;;;;;;8.37;2.27;;;;;;;-144.30;59.29;86360.72;5058162;28;20215;-59
2024/01/26 05:52:27;;;;;;;3.97;2.63;;;;;;;-144.30;59.55;86847.94;5060467;28;20220;-58
2024/01/26 05:54:54;;;;;;;10.47;2.63;;;;;;;-144.30;59.49;86352.75;5072119;28;20203;-59
2024/01/26 05:57:21;;;;;;;4.07;2.30;;;;;;;-144.30;59.63;86360.72;5071604;28;20235;-58
2024/01/26 05:59:48;;;;;;;6.63;2.80;;;;;;;-144.30;59.25;86348.78;5071026;28;20236;-59
2024/01/26 06:02:15;;;;;;;6.23;2.40;;;;;;;-144.30;59.52;86358.72;5057753;28;20216;-61
2024/01/26 06:04:42;;;;;;;8.73;2.23;;;;;;;-144.30;59.75;86295.09;5069564;28;20253;-53
2024/01/26 06:07:10;;;;;;;7.23;2.50;;;;;;;-144.30;59.46;86364.69;5070391;28;20294;-54
2024/01/26 06:09:37;;;;;;;7.67;2.60;;;;;;;-144.30;59.35;86352.75;5069931;28;20239;-55
2024/01/26 06:12:04;;;;;;;4.20;2.40;;;;;;;-144.30;59.46;86342.81;5067982;28;20206;-62
2024/01/26 06:14:31;;;;;;;3.00;2.47;;;;;;;-144.30;59.30;86324.94;5053195;28;20204;-61
2024/01/26 06:16:58;;;;;;;3.50;2.20;;;;;;;-144.30;59.45;86344.81;5059441;28;20200;-53
2024/01/26 06:19:25;;;;;;;5.17;2.40;;;;;;;-144.30;59.20;86346.81;5070953;28;20200;-54
2024/01/26 06:21:52;;;;;;;8.33;2.37;;;;;;;-144.30;58.78;86326.91;5056072;28;20211;-53
2024/01/26 06:24:20;;;;;;;9.57;2.47;;;;;;;-144.30;58.73;86334.88;5051092;28;20538;-53
2024/01/26 06:26:47;;;;;;;6.43;2.83;;;;;;;-144.30;58.44;86338.84;5050597;28;20204;-54
2024/01/26 06:29:14;;;;;;;5.63;2.47;;;;;;;-144.30;58.82;86336.84;5050916;28;20279;-61
2024/01/26 06:31:41;;;;;;;5.40;3.03;;;;;;;-144.30;58.71;86267.25;5050251;28;20204;-61
2024/01/26 06:34:08;;;;;;;6.63;2.77;;;;;;;-144.30;58.47;86334.88;5050318;28;20200;-61
2024/01/26 06:36:35;;;;;;;9.77;2.87;;;;;;;-144.30;58.83;86305.03;5050130;28;20202;-61
2024/01/26 06:39:02;;;;;;;5.87;2.57;;;;;;;-144.30;58.08;86322.94;5052944;28;20206;-61
2024/01/26 06:41:31;;;;;;;6.60;2.50;;;;;;;-144.30;58.33;86314.97;5063375;28;20207;-60
2024/01/26 06:43:58;;;;;;;6.57;2.70;;;;;;;-144.30;58.36;86322.94;5059950;28;20625;-53
2024/01/26 06:46:24;;;;;;;8.43;2.43;;;;;;;-144.30;58.14;86328.91;5051915;28;20205;-53
2024/01/26 06:48:52;;;;;;;8.37;3.13;;;;;;;-144.30;57.98;86275.22;5049959;28;20207;-52
2024/01/26 06:51:18;;;;;;;6.50;2.90;;;;;;;-144.30;58.18;86314.97;5050706;28;20593;-53
2024/01/26 06:53:45;;;;;;;4.03;2.37;;;;;;;-144.30;57.53;86299.06;5057561;28;20290;-53
2024/01/26 06:56:12;;;;;;;8.77;3.00;;;;;;;-144.30;57.47;86301.06;5059153;28;20597;-53
2024/01/26 06:58:41;;;;;;;7.37;2.87;;;;;;;-144.30;57.49;86291.13;5061232;28;20200;-61
2024/01/26 07:01:08;;;;;;;4.37;2.60;;;;;;;-144.30;57.07;86269.25;5070120;28;20200;-61
2024/01/26 07:03:34;;;;;;;6.77;2.93;;;;;;;-144.30;56.88;86287.16;5069869;28;20226;-63
2024/01/26 07:06:01;;;;;;;13.67;7.23;;;;;;;-144.30;56.99;86283.16;5064228;28;20223;-62
2024/01/26 07:08:28;;;;;;;11.53;5.23;;;;;;;-144.30;56.65;86267.25;5053270;28;20389;-61
2024/01/26 07:10:55;;;;;;;5.47;2.80;;;;;;;-144.30;56.32;86293.09;5057714;28;20570;-61
2024/01/26 07:13:22;;;;;;;10.77;2.67;;;;;;;-144.30;56.40;86263.28;5059095;28;20193;-61
2024/01/26 07:15:50;;;;;;;14.00;4.63;;;;;;;-144.30;55.94;86277.19;5057569;28;20206;-61
2024/01/26 07:18:17;;;;;;;12.27;3.13;;;;;;;-144.30;56.08;86195.69;5061117;28;20196;-60
2024/01/26 07:20:44;;;;;;;8.83;2.63;;;;;;;-144.30;56.08;86314.97;5057997;28;20204;-61
2024/01/26 07:23:11;;;;;;;10.97;3.53;;;;;;;-144.30;56.10;86239.44;5055277;28;20224;-61
2024/01/26 07:25:37;;;;;;;6.17;3.30;;;;;;;-144.30;56.22;86231.47;5061858;28;20214;-60
2024/01/26 07:28:07;;;;;;;5.33;2.63;;;;;;;-144.30;56.17;86243.41;5068372;28;20684;-61
2024/01/26 07:30:34;;;;;;;7.87;2.80;;;;;;;-144.30;56.34;86239.44;5049645;28;20204;-62
2024/01/26 07:33:02;;;;;;;8.13;3.00;;;;;;;-144.30;55.90;86235.44;5049421;28;20283;-62
2024/01/26 07:35:29;;;;;;;5.63;2.80;;;;;;;-144.30;56.15;86231.47;5048873;28;20203;-61
2024/01/26 07:37:56;;;;;;;9.27;2.70;;;;;;;-144.30;56.60;86249.38;5054166;28;20203;-61
2024/01/26 07:40:23;;;;;;;7.87;2.37;;;;;;;-144.30;56.30;86269.25;5068870;28;20577;-62
2024/01/26 07:42:50;;;;;;;7.30;2.93;;;;;;;-144.30;56.26;86235.44;5057321;28;20232;-61
2024/01/26 07:45:17;;;;;;;8.17;3.07;;;;;;;-144.30;56.44;86261.28;5053668;28;20588;-61
2024/01/26 07:47:43;;;;;;;5.90;3.00;;;;;;;-144.30;56.69;86253.34;5049384;28;20284;-61
2024/01/26 07:50:12;;;;;;;9.17;3.07;;;;;;;-144.30;56.78;86219.53;5055605;28;20200;-61
2024/01/26 07:52:39;;;;;;;6.03;2.43;;;;;;;-144.30;56.73;86231.47;5065550;28;20206;-60
2024/01/26 07:55:08;;;;;;;8.67;2.90;;;;;;;-144.30;56.25;86657.03;5054226;28;20623;-62
2024/01/26 07:57:37;;;;;;;4.20;2.40;;;;;;;-144.30;55.94;86209.59;5053654;28;20210;-53
2024/01/26 08:00:06;;;;;;;10.37;2.83;;;;;;;-144.30;56.81;86215.56;5055834;28;20208;-52
2024/01/26 08:02:33;;;;;;;5.20;2.70;;;;;;;-144.30;56.00;86259.31;5062871;28;20230;-58
2024/01/26 08:05:00;;;;;;;8.53;2.40;;;;;;;-144.30;55.93;86235.44;5059179;28;20227;-58
2024/01/26 08:07:28;;;;;;;5.07;3.03;;;;;;;-144.30;56.09;86175.78;5061369;28;20212;-58
2024/01/26 08:09:55;;;;;;;9.37;2.93;;;;;;;-144.30;55.06;86205.63;5058310;28;20203;-53
2024/01/26 08:12:22;;;;;;;10.82;3.30;;;;;;;-144.30;54.91;86215.56;5057382;28;20447;-53
2024/01/26 08:14:49;;;;;;;10.23;3.80;;;;;;;-144.30;55.40;86193.69;5057943;28;20508;-55
2024/01/26 08:17:16;;;;;;;13.33;3.10;;;;;;;-144.30;54.94;86193.69;5057305;28;20214;-54
2024/01/26 08:19:43;;;;;;;6.47;2.77;;;;;;;-144.30;55.31;86191.69;5060943;28;20203;-55
2024/01/26 08:22:10;;;;;;;7.13;2.80;;;;;;;-144.30;55.09;86173.81;5066224;28;20315;-54
2024/01/26 08:24:38;;;;;;;6.70;2.43;;;;;;;-144.30;55.34;86209.59;5068715;28;20223;-53
2024/01/26 08:27:06;;;;;;;4.53;2.73;;;;;;;-144.30;55.51;86173.81;5068611;28;20668;-54
2024/01/26 08:29:33;;;;;;;6.17;2.53;;;;;;;-144.30;55.70;86197.66;5052796;28;20306;-61
2024/01/26 08:32:00;;;;;;;5.37;2.47;;;;;;;-144.30;55.09;86201.66;5054617;28;20287;-61
2024/01/26 08:34:26;;;;;;;100.83;6.83;;;;;;;-144.30;55.08;86197.66;5068278;28;20215;-62
2024/01/26 08:36:53;;;;;;;9.53;2.90;;;;;;;-144.30;54.99;86149.94;5058838;28;20203;-62
2024/01/26 08:39:22;;;;;;;26.30;3.17;;;;;;;-144.30;55.03;86197.66;5058085;28;20724;-62
2024/01/26 08:41:50;;;;;;;3.43;2.40;;;;;;;-144.30;54.82;86189.72;5061143;28;20204;-52
2024/01/26 08:44:17;;;;;;;7.43;2.70;;;;;;;-144.30;55.19;86199.66;5059083;28;20227;-61
2024/01/26 08:46:44;;;;;;;13.17;2.93;;;;;;;-144.30;54.89;86203.63;5059695;28;20247;-54
2024/01/26 08:49:11;;;;;;;9.27;2.40;;;;;;;-144.30;54.52;86191.69;5049664;28;20200;-54
2024/01/26 08:51:38;;;;;;;7.33;2.40;;;;;;;-144.30;54.47;86159.88;5059268;28;20204;-54
2024/01/26 08:54:05;;;;;;;12.93;2.53;;;;;;;-144.30;54.42;86217.56;5048318;28;20204;-55
2024/01/26 08:56:32;;;;;;;10.83;2.53;;;;;;;-144.30;54.08;86197.66;5061006;28;20231;-54
2024/01/26 08:59:00;;;;;;;11.33;2.60;;;;;;;-144.30;54.19;86155.91;5068652;28;20202;-53
2024/01/26 09:01:27;;;;;;;9.33;2.90;;;;;;;-144.30;54.13;86189.72;5060836;28;20204;-54
2024/01/26 09:03:54;;;;;;;11.80;3.03;;;;;;;-144.30;54.04;86163.88;5068176;28;20220;-62
2024/01/26 09:06:21;;;;;;;6.87;2.27;;;;;;;-144.30;54.04;86132.06;5056972;28;20259;-61
2024/01/26 09:08:48;;;;;;;10.33;2.93;;;;;;;-144.30;54.01;86157.91;5059356;28;20200;-61
2024/01/26 09:11:15;;;;;;;5.87;2.90;;;;;;;-144.30;54.34;86130.06;5062850;28;20199;-62
2024/01/26 09:13:41;;;;;;;12.13;3.47;;;;;;;-144.30;54.30;86215.56;5063483;28;20314;-62
2024/01/26 09:16:12;;;;;;;6.20;3.53;;;;;;;-144.30;54.70;86155.91;5064129;28;20197;-61
2024/01/26 09:18:39;;;;;;;6.17;2.57;;;;;;;-144.30;53.98;87118.41;5059229;28;20197;-61
2024/01/26 09:21:06;;;;;;;12.63;2.70;;;;;;;-144.30;53.70;86173.81;5052113;28;20219;-54
2024/01/26 09:23:33;;;;;;;14.20;2.97;;;;;;;-144.30;53.42;86132.06;5065868;28;20234;-54
2024/01/26 09:26:00;;;;;;;9.07;2.80;;;;;;;-144.30;53.20;86159.88;5067639;28;20294;-61
2024/01/26 09:28:27;;;;;;;4.43;2.43;;;;;;;-144.30;53.72;86142.00;5068479;28;20244;-54
2024/01/26 09:30:54;;;;;;;8.77;2.70;;;;;;;-144.30;53.73;86171.81;5068825;28;20196;-53
2024/01/26 09:33:22;;;;;;;5.93;2.70;;;;;;;-144.30;53.60;86140.00;5070037;28;20192;-53
2024/01/26 09:35:49;;;;;;;3.67;2.33;;;;;;;-144.30;52.79;86090.28;5051882;28;20205;-53
2024/01/26 09:38:18;;;;;;;5.50;2.60;;;;;;;-144.30;53.06;86167.84;5052276;28;20228;-53
2024/01/26 09:40:45;;;;;;;5.37;2.53;;;;;;;-144.30;53.03;86149.94;5070033;28;20722;-54
2024/01/26 09:43:12;;;;;;;9.43;2.87;;;;;;;-144.30;52.68;86140.00;5067005;28;20224;-54
2024/01/26 09:45:39;;;;;;;4.90;2.77;;;;;;;-144.30;52.82;86106.19;5058361;28;20210;-54
2024/01/26 09:48:06;;;;;;;9.83;2.20;;;;;;;-144.30;52.49;86635.13;5065390;28;20209;-54
2024/01/26 09:50:36;;;;;;;6.17;2.87;;;;;;;-144.30;52.30;86151.94;5069340;28;20602;-54
2024/01/26 09:53:04;;;;;;;7.07;2.50;;;;;;;-144.30;52.40;86155.91;5056497;28;20200;-61
2024/01/26 09:55:32;;;;;;;18.47;2.90;;;;;;;-144.30;52.17;86104.22;5071258;28;20204;-61
2024/01/26 09:58:00;;;;;;;4.40;2.50;;;;;;;-144.30;51.88;86104.22;5065624;28;20209;-61
2024/01/26 10:00:27;;;;;;;4.50;2.07;;;;;;;-144.30;51.93;86151.94;5071616;28;20239;-61
2024/01/26 10:02:54;;;;;;;3.77;2.27;;;;;;;-144.30;52.25;86159.88;5060094;28;20193;-55
2024/01/26 10:05:21;;;;;;;3.57;2.30;;;;;;;-144.30;51.97;86104.22;5060216;28;20222;-55
2024/01/26 10:07:49;;;;;;;7.77;2.70;;;;;;;-144.30;51.83;86124.09;5061980;28;20214;-54
2024/01/26 10:10:16;;;;;;;8.97;2.20;;;;;;;-144.30;51.74;86104.22;5072117;28;20208;-54
2024/01/26 10:12:43;;;;;;;8.80;2.90;;;;;;;-144.30;52.25;86140.00;5068933;28;20224;-54
2024/01/26 10:15:10;;;;;;;7.23;2.43;;;;;;;-144.30;52.05;86076.38;5055630;28;20205;-55
2024/01/26 10:17:38;;;;;;;7.97;2.37;;;;;;;-144.30;51.94;86136.03;5061742;28;20672;-54
2024/01/26 10:20:13;;;;;;;9.07;2.47;;;;;;;-144.30;52.14;86088.31;5051469;28;20200;-54
2024/01/26 10:22:41;;;;;;;6.80;1.80;;;;;;;-144.30;51.85;86145.97;5062753;28;20578;-55
2024/01/26 10:25:10;;;;;;;5.60;1.77;;;;;;;-144.30;51.51;86136.03;5066573;28;20234;-54
2024/01/26 10:27:37;;;;;;;5.17;2.03;;;;;;;-144.30;51.66;86108.19;5058162;28;20228;-54
2024/01/26 10:30:05;;;;;;;10.70;2.57;;;;;;;-144.30;51.79;86072.41;5063119;28;20204;-54
2024/01/26 10:32:33;;;;;;;6.17;2.13;;;;;;;-144.30;52.04;86153.91;5070530;28;20192;-54
2024/01/26 10:35:01;;;;;;;4.77;2.00;;;;;;;-144.30;52.00;86104.22;5070306;28;20198;-53
2024/01/26 10:37:29;;;;;;;38.97;2.90;;;;;;;-144.30;51.54;86112.16;5058312;28;20332;-53
2024/01/26 10:39:59;;;;;;;3.90;2.20;;;;;;;-144.30;51.98;86062.47;5050634;28;20224;-54
2024/01/26 10:42:30;;;;;;;3.50;2.37;;;;;;;-144.30;51.79;86132.06;5066139;28;20273;-61
2024/01/26 10:44:58;;;;;;;6.33;2.70;;;;;;;-144.30;51.59;86126.09;5062574;28;21069;-60
2024/01/26 10:47:26;;;;;;;3.77;1.67;;;;;;;-144.30;51.33;86112.16;5052169;28;20215;-61
2024/01/26 10:49:55;;;;;;;8.37;2.20;;;;;;;-144.30;51.22;86116.16;5057577;28;20202;-61
2024/01/26 10:52:23;;;;;;;8.80;2.60;;;;;;;-144.30;51.31;86112.16;5059638;28;20200;-61
2024/01/26 10:54:51;;;;;;;14.27;2.60;;;;;;;-144.30;51.28;86110.19;5062067;28;20262;-61
2024/01/26 10:57:20;;;;;;;3.53;2.03;;;;;;;-144.30;51.24;86084.34;5053411;28;20211;-61
2024/01/26 10:59:49;;;;;;;4.57;2.20;;;;;;;-144.30;50.71;86036.59;5058798;28;20211;-60
2024/01/26 11:02:19;;;;;;;4.17;2.10;;;;;;;-144.30;50.48;86074.38;5055253;28;20200;-60
2024/01/26 11:04:46;;;;;;;4.50;2.13;;;;;;;-144.30;50.26;86052.50;5050732;28;20224;-60
2024/01/26 11:07:13;;;;;;;6.80;2.30;;;;;;;-144.30;50.39;86070.41;5067801;28;20749;-60
2024/01/26 11:09:41;;;;;;;2.90;1.73;;;;;;;-144.30;50.56;86054.50;5052367;28;20484;-61
2024/01/26 11:12:21;;;;;;;4.63;2.27;;;;;;;-144.30;50.55;86064.44;5058829;28;20228;-54
2024/01/26 11:15:05;;;;;;;11.17;2.20;;;;;;;-144.30;50.50;86024.69;5068704;28;20199;-54
2024/01/26 11:17:43;;;;;;;4.83;2.40;;;;;;;-144.30;50.41;86084.34;5057842;28;20191;-53